sensor_id;sensor_type;location;lat;lon;timestamp;P1;durP1;ratioP1;P2;durP2;ratioP2
5845;SDS011;2949;50.778;7.094;2022-12-07T00:01:39;50.40;;;21.40;;
5845;SDS011;2949;50.778;7.094;2022-12-07T00:04:06;47.30;;;21.43;;
5845;SDS011;2949;50.778;7.094;2022-12-07T00:06:35;49.80;;;22.37;;
5845;SDS011;2949;50.778;7.094;2022-12-07T00:09:03;54.47;;;23.53;;
5845;SDS011;2949;50.778;7.094;2022-12-07T00:11:29;47.00;;;22.13;;
5845;SDS011;2949;50.778;7.094;2022-12-07T00:13:57;53.93;;;23.17;;
5845;SDS011;2949;50.778;7.094;2022-12-07T00:16:25;51.00;;;23.40;;
5845;SDS011;2949;50.778;7.094;2022-12-07T00:18:52;48.43;;;22.60;;
5845;SDS011;2949;50.778;7.094;2022-12-07T00:21:19;50.13;;;23.47;;
5845;SDS011;2949;50.778;7.094;2022-12-07T00:23:46;57.80;;;25.67;;
5845;SDS011;2949;50.778;7.094;2022-12-07T00:26:14;52.83;;;22.63;;
5845;SDS011;2949;50.778;7.094;2022-12-07T00:28:46;55.93;;;24.47;;
5845;SDS011;2949;50.778;7.094;2022-12-07T00:31:13;48.07;;;24.47;;
5845;SDS011;2949;50.778;7.094;2022-12-07T00:33:40;51.43;;;24.30;;
5845;SDS011;2949;50.778;7.094;2022-12-07T00:36:06;49.50;;;24.63;;
5845;SDS011;2949;50.778;7.094;2022-12-07T00:38:34;45.13;;;24.43;;
5845;SDS011;2949;50.778;7.094;2022-12-07T00:41:02;55.40;;;26.20;;
5845;SDS011;2949;50.778;7.094;2022-12-07T00:43:32;46.20;;;25.40;;
5845;SDS011;2949;50.778;7.094;2022-12-07T00:45:58;46.47;;;24.57;;
5845;SDS011;2949;50.778;7.094;2022-12-07T00:48:24;59.03;;;24.60;;
5845;SDS011;2949;50.778;7.094;2022-12-07T00:50:49;47.83;;;24.90;;
5845;SDS011;2949;50.778;7.094;2022-12-07T00:53:15;48.73;;;24.10;;
5845;SDS011;2949;50.778;7.094;2022-12-07T00:55:41;44.90;;;24.13;;
5845;SDS011;2949;50.778;7.094;2022-12-07T00:58:07;45.43;;;24.80;;
5845;SDS011;2949;50.778;7.094;2022-12-07T01:00:33;51.53;;;24.40;;
5845;SDS011;2949;50.778;7.094;2022-12-07T01:03:01;45.90;;;25.60;;
5845;SDS011;2949;50.778;7.094;2022-12-07T01:05:26;48.90;;;25.47;;
5845;SDS011;2949;50.778;7.094;2022-12-07T01:07:52;46.40;;;23.93;;
5845;SDS011;2949;50.778;7.094;2022-12-07T01:10:17;42.13;;;23.90;;
5845;SDS011;2949;50.778;7.094;2022-12-07T01:12:43;46.40;;;25.40;;
5845;SDS011;2949;50.778;7.094;2022-12-07T01:15:09;51.90;;;25.20;;
5845;SDS011;2949;50.778;7.094;2022-12-07T01:17:34;51.63;;;26.30;;
5845;SDS011;2949;50.778;7.094;2022-12-07T01:20:00;52.73;;;27.67;;
5845;SDS011;2949;50.778;7.094;2022-12-07T01:22:26;47.17;;;24.30;;
5845;SDS011;2949;50.778;7.094;2022-12-07T01:24:52;52.40;;;24.83;;
5845;SDS011;2949;50.778;7.094;2022-12-07T01:27:17;48.83;;;25.10;;
5845;SDS011;2949;50.778;7.094;2022-12-07T01:29:43;49.30;;;23.87;;
5845;SDS011;2949;50.778;7.094;2022-12-07T01:32:09;44.97;;;23.93;;
5845;SDS011;2949;50.778;7.094;2022-12-07T01:34:34;46.60;;;24.77;;
5845;SDS011;2949;50.778;7.094;2022-12-07T01:37:00;60.13;;;26.10;;
5845;SDS011;2949;50.778;7.094;2022-12-07T01:39:25;53.20;;;25.50;;
5845;SDS011;2949;50.778;7.094;2022-12-07T01:41:51;49.30;;;24.73;;
5845;SDS011;2949;50.778;7.094;2022-12-07T01:46:50;42.90;;;23.93;;
5845;SDS011;2949;50.778;7.094;2022-12-07T01:49:37;51.47;;;26.70;;
5845;SDS011;2949;50.778;7.094;2022-12-07T01:54:46;45.60;;;24.90;;
5845;SDS011;2949;50.778;7.094;2022-12-07T01:57:13;51.73;;;23.97;;
5845;SDS011;2949;50.778;7.094;2022-12-07T01:59:41;52.70;;;25.97;;
5845;SDS011;2949;50.778;7.094;2022-12-07T02:02:10;49.43;;;26.60;;
5845;SDS011;2949;50.778;7.094;2022-12-07T02:04:42;50.53;;;26.60;;
5845;SDS011;2949;50.778;7.094;2022-12-07T02:07:09;48.40;;;24.50;;
5845;SDS011;2949;50.778;7.094;2022-12-07T02:09:34;47.00;;;25.07;;
5845;SDS011;2949;50.778;7.094;2022-12-07T02:12:00;46.17;;;23.77;;
5845;SDS011;2949;50.778;7.094;2022-12-07T02:14:26;50.57;;;26.67;;
5845;SDS011;2949;50.778;7.094;2022-12-07T02:16:54;48.27;;;24.40;;
5845;SDS011;2949;50.778;7.094;2022-12-07T02:22:37;56.90;;;25.60;;
5845;SDS011;2949;50.778;7.094;2022-12-07T02:27:47;54.57;;;27.30;;
5845;SDS011;2949;50.778;7.094;2022-12-07T02:30:27;56.87;;;27.60;;
5845;SDS011;2949;50.778;7.094;2022-12-07T02:32:59;48.63;;;25.70;;
5845;SDS011;2949;50.778;7.094;2022-12-07T02:35:32;42.00;;;23.60;;
5845;SDS011;2949;50.778;7.094;2022-12-07T02:38:13;45.30;;;25.30;;
5845;SDS011;2949;50.778;7.094;2022-12-07T02:43:19;47.93;;;24.17;;
5845;SDS011;2949;50.778;7.094;2022-12-07T02:45:56;60.93;;;27.07;;
5845;SDS011;2949;50.778;7.094;2022-12-07T02:48:27;57.20;;;26.53;;
5845;SDS011;2949;50.778;7.094;2022-12-07T02:50:53;51.30;;;25.90;;
5845;SDS011;2949;50.778;7.094;2022-12-07T02:59:09;55.33;;;27.10;;
5845;SDS011;2949;50.778;7.094;2022-12-07T03:10:14;51.97;;;26.30;;
5845;SDS011;2949;50.778;7.094;2022-12-07T03:12:56;48.43;;;24.97;;
5845;SDS011;2949;50.778;7.094;2022-12-07T03:18:01;43.77;;;24.67;;
5845;SDS011;2949;50.778;7.094;2022-12-07T03:20:28;44.17;;;24.37;;
5845;SDS011;2949;50.778;7.094;2022-12-07T03:22:57;50.50;;;26.30;;
5845;SDS011;2949;50.778;7.094;2022-12-07T03:25:24;55.13;;;26.40;;
5845;SDS011;2949;50.778;7.094;2022-12-07T03:27:54;45.13;;;24.80;;
5845;SDS011;2949;50.778;7.094;2022-12-07T03:30:24;50.93;;;24.80;;
5845;SDS011;2949;50.778;7.094;2022-12-07T03:32:59;47.80;;;25.47;;
5845;SDS011;2949;50.778;7.094;2022-12-07T03:35:33;46.97;;;24.67;;
5845;SDS011;2949;50.778;7.094;2022-12-07T03:40:52;52.47;;;25.97;;
5845;SDS011;2949;50.778;7.094;2022-12-07T03:43:25;44.83;;;24.60;;
5845;SDS011;2949;50.778;7.094;2022-12-07T03:46:01;47.90;;;25.60;;
5845;SDS011;2949;50.778;7.094;2022-12-07T03:48:35;47.60;;;25.57;;
5845;SDS011;2949;50.778;7.094;2022-12-07T03:51:11;45.13;;;24.43;;
5845;SDS011;2949;50.778;7.094;2022-12-07T03:53:55;45.57;;;25.53;;
5845;SDS011;2949;50.778;7.094;2022-12-07T03:56:44;47.13;;;25.47;;
5845;SDS011;2949;50.778;7.094;2022-12-07T03:59:11;53.83;;;25.77;;
5845;SDS011;2949;50.778;7.094;2022-12-07T04:01:37;52.27;;;26.07;;
5845;SDS011;2949;50.778;7.094;2022-12-07T04:04:03;48.40;;;24.17;;
5845;SDS011;2949;50.778;7.094;2022-12-07T04:06:28;49.70;;;25.03;;
5845;SDS011;2949;50.778;7.094;2022-12-07T04:08:54;48.60;;;25.73;;
5845;SDS011;2949;50.778;7.094;2022-12-07T04:11:20;56.23;;;25.03;;
5845;SDS011;2949;50.778;7.094;2022-12-07T04:13:45;51.17;;;25.33;;
5845;SDS011;2949;50.778;7.094;2022-12-07T04:16:29;49.80;;;25.67;;
5845;SDS011;2949;50.778;7.094;2022-12-07T04:18:55;45.60;;;24.60;;
5845;SDS011;2949;50.778;7.094;2022-12-07T04:21:20;48.60;;;25.80;;
5845;SDS011;2949;50.778;7.094;2022-12-07T04:23:46;46.90;;;26.00;;
5845;SDS011;2949;50.778;7.094;2022-12-07T04:26:11;50.83;;;26.40;;
5845;SDS011;2949;50.778;7.094;2022-12-07T04:28:37;51.10;;;24.93;;
5845;SDS011;2949;50.778;7.094;2022-12-07T04:31:02;52.63;;;25.53;;
5845;SDS011;2949;50.778;7.094;2022-12-07T04:33:28;64.57;;;30.63;;
5845;SDS011;2949;50.778;7.094;2022-12-07T04:35:53;48.97;;;26.30;;
5845;SDS011;2949;50.778;7.094;2022-12-07T04:38:19;53.33;;;27.37;;
5845;SDS011;2949;50.778;7.094;2022-12-07T04:40:44;54.27;;;25.10;;
5845;SDS011;2949;50.778;7.094;2022-12-07T04:43:10;52.27;;;26.50;;
5845;SDS011;2949;50.778;7.094;2022-12-07T04:45:35;55.10;;;26.63;;
5845;SDS011;2949;50.778;7.094;2022-12-07T04:48:01;53.77;;;26.13;;
5845;SDS011;2949;50.778;7.094;2022-12-07T04:50:26;48.63;;;25.43;;
5845;SDS011;2949;50.778;7.094;2022-12-07T04:52:52;53.07;;;26.47;;
5845;SDS011;2949;50.778;7.094;2022-12-07T04:55:18;55.13;;;26.07;;
5845;SDS011;2949;50.778;7.094;2022-12-07T04:57:43;56.40;;;26.77;;
5845;SDS011;2949;50.778;7.094;2022-12-07T05:00:09;55.03;;;26.20;;
5845;SDS011;2949;50.778;7.094;2022-12-07T05:02:34;47.00;;;24.90;;
5845;SDS011;2949;50.778;7.094;2022-12-07T05:05:00;52.73;;;26.30;;
5845;SDS011;2949;50.778;7.094;2022-12-07T05:07:25;61.37;;;26.80;;
5845;SDS011;2949;50.778;7.094;2022-12-07T05:09:51;53.57;;;25.00;;
5845;SDS011;2949;50.778;7.094;2022-12-07T05:12:16;49.17;;;25.63;;
5845;SDS011;2949;50.778;7.094;2022-12-07T05:14:42;52.67;;;25.20;;
5845;SDS011;2949;50.778;7.094;2022-12-07T05:17:08;56.23;;;27.80;;
5845;SDS011;2949;50.778;7.094;2022-12-07T05:19:33;53.07;;;26.47;;
5845;SDS011;2949;50.778;7.094;2022-12-07T05:21:59;61.37;;;26.83;;
5845;SDS011;2949;50.778;7.094;2022-12-07T05:24:24;63.03;;;27.53;;
5845;SDS011;2949;50.778;7.094;2022-12-07T05:26:50;61.70;;;27.00;;
5845;SDS011;2949;50.778;7.094;2022-12-07T05:29:16;58.07;;;26.63;;
5845;SDS011;2949;50.778;7.094;2022-12-07T05:31:42;51.83;;;27.10;;
5845;SDS011;2949;50.778;7.094;2022-12-07T05:34:08;64.57;;;27.80;;
5845;SDS011;2949;50.778;7.094;2022-12-07T05:36:36;62.30;;;28.77;;
5845;SDS011;2949;50.778;7.094;2022-12-07T05:39:01;57.87;;;26.17;;
5845;SDS011;2949;50.778;7.094;2022-12-07T05:41:27;56.17;;;28.50;;
5845;SDS011;2949;50.778;7.094;2022-12-07T05:44:11;49.47;;;25.30;;
5845;SDS011;2949;50.778;7.094;2022-12-07T05:46:37;59.73;;;26.03;;
5845;SDS011;2949;50.778;7.094;2022-12-07T05:49:02;51.93;;;25.80;;
5845;SDS011;2949;50.778;7.094;2022-12-07T05:51:28;54.30;;;26.33;;
5845;SDS011;2949;50.778;7.094;2022-12-07T05:53:53;48.20;;;23.70;;
5845;SDS011;2949;50.778;7.094;2022-12-07T05:56:19;54.47;;;23.67;;
5845;SDS011;2949;50.778;7.094;2022-12-07T05:58:44;43.80;;;22.70;;
5845;SDS011;2949;50.778;7.094;2022-12-07T06:01:42;50.20;;;23.50;;
5845;SDS011;2949;50.778;7.094;2022-12-07T06:04:08;44.53;;;22.10;;
5845;SDS011;2949;50.778;7.094;2022-12-07T06:06:33;47.57;;;23.30;;
5845;SDS011;2949;50.778;7.094;2022-12-07T06:08:59;49.23;;;22.57;;
5845;SDS011;2949;50.778;7.094;2022-12-07T06:11:24;46.00;;;22.70;;
5845;SDS011;2949;50.778;7.094;2022-12-07T06:14:08;44.13;;;23.10;;
5845;SDS011;2949;50.778;7.094;2022-12-07T06:16:34;49.20;;;26.50;;
5845;SDS011;2949;50.778;7.094;2022-12-07T06:18:59;39.77;;;21.43;;
5845;SDS011;2949;50.778;7.094;2022-12-07T06:21:25;54.13;;;23.93;;
5845;SDS011;2949;50.778;7.094;2022-12-07T06:23:51;55.33;;;24.63;;
5845;SDS011;2949;50.778;7.094;2022-12-07T06:26:17;41.40;;;22.63;;
5845;SDS011;2949;50.778;7.094;2022-12-07T06:28:42;53.07;;;24.93;;
5845;SDS011;2949;50.778;7.094;2022-12-07T06:31:08;45.03;;;23.73;;
5845;SDS011;2949;50.778;7.094;2022-12-07T06:33:34;48.23;;;22.60;;
5845;SDS011;2949;50.778;7.094;2022-12-07T06:35:59;48.03;;;22.77;;
5845;SDS011;2949;50.778;7.094;2022-12-07T06:38:25;60.53;;;25.03;;
5845;SDS011;2949;50.778;7.094;2022-12-07T06:40:50;56.23;;;23.23;;
5845;SDS011;2949;50.778;7.094;2022-12-07T06:43:16;49.80;;;23.77;;
5845;SDS011;2949;50.778;7.094;2022-12-07T06:45:42;50.87;;;23.27;;
5845;SDS011;2949;50.778;7.094;2022-12-07T06:48:07;54.80;;;22.67;;
5845;SDS011;2949;50.778;7.094;2022-12-07T06:50:33;52.07;;;23.53;;
5845;SDS011;2949;50.778;7.094;2022-12-07T06:52:58;57.87;;;24.40;;
5845;SDS011;2949;50.778;7.094;2022-12-07T06:55:24;52.70;;;23.53;;
5845;SDS011;2949;50.778;7.094;2022-12-07T06:57:49;53.17;;;24.87;;
5845;SDS011;2949;50.778;7.094;2022-12-07T07:00:15;70.33;;;26.77;;
5845;SDS011;2949;50.778;7.094;2022-12-07T07:02:41;52.97;;;23.60;;
5845;SDS011;2949;50.778;7.094;2022-12-07T07:05:06;56.97;;;24.43;;
5845;SDS011;2949;50.778;7.094;2022-12-07T07:07:32;57.93;;;25.17;;
5845;SDS011;2949;50.778;7.094;2022-12-07T07:09:57;60.63;;;25.27;;
5845;SDS011;2949;50.778;7.094;2022-12-07T07:12:23;68.47;;;23.77;;
5845;SDS011;2949;50.778;7.094;2022-12-07T07:14:48;52.13;;;23.23;;
5845;SDS011;2949;50.778;7.094;2022-12-07T07:17:14;62.83;;;24.40;;
5845;SDS011;2949;50.778;7.094;2022-12-07T07:19:39;60.90;;;23.60;;
5845;SDS011;2949;50.778;7.094;2022-12-07T07:22:05;61.23;;;23.00;;
5845;SDS011;2949;50.778;7.094;2022-12-07T07:24:30;53.70;;;23.10;;
5845;SDS011;2949;50.778;7.094;2022-12-07T07:26:56;44.63;;;20.83;;
5845;SDS011;2949;50.778;7.094;2022-12-07T07:29:21;52.33;;;20.23;;
5845;SDS011;2949;50.778;7.094;2022-12-07T07:31:47;46.43;;;20.50;;
5845;SDS011;2949;50.778;7.094;2022-12-07T07:34:13;45.67;;;21.00;;
5845;SDS011;2949;50.778;7.094;2022-12-07T07:36:38;54.10;;;20.50;;
5845;SDS011;2949;50.778;7.094;2022-12-07T07:39:04;49.70;;;21.37;;
5845;SDS011;2949;50.778;7.094;2022-12-07T07:41:30;49.13;;;20.47;;
5845;SDS011;2949;50.778;7.094;2022-12-07T07:43:56;43.20;;;19.90;;
5845;SDS011;2949;50.778;7.094;2022-12-07T07:46:21;42.10;;;19.30;;
5845;SDS011;2949;50.778;7.094;2022-12-07T07:48:47;33.97;;;18.70;;
5845;SDS011;2949;50.778;7.094;2022-12-07T07:51:13;39.80;;;18.87;;
5845;SDS011;2949;50.778;7.094;2022-12-07T07:53:39;34.67;;;17.77;;
5845;SDS011;2949;50.778;7.094;2022-12-07T07:56:04;41.00;;;19.97;;
5845;SDS011;2949;50.778;7.094;2022-12-07T07:58:30;37.40;;;17.63;;
5845;SDS011;2949;50.778;7.094;2022-12-07T08:00:55;41.20;;;19.23;;
5845;SDS011;2949;50.778;7.094;2022-12-07T08:03:20;37.17;;;18.60;;
5845;SDS011;2949;50.778;7.094;2022-12-07T08:05:46;38.00;;;17.53;;
5845;SDS011;2949;50.778;7.094;2022-12-07T08:08:12;46.20;;;19.97;;
5845;SDS011;2949;50.778;7.094;2022-12-07T08:10:37;49.13;;;19.50;;
5845;SDS011;2949;50.778;7.094;2022-12-07T08:13:03;44.77;;;20.23;;
5845;SDS011;2949;50.778;7.094;2022-12-07T08:15:42;38.40;;;19.10;;
5845;SDS011;2949;50.778;7.094;2022-12-07T08:18:08;39.87;;;19.87;;
5845;SDS011;2949;50.778;7.094;2022-12-07T08:20:34;43.40;;;21.00;;
5845;SDS011;2949;50.778;7.094;2022-12-07T08:23:02;39.43;;;19.40;;
5845;SDS011;2949;50.778;7.094;2022-12-07T08:25:28;37.80;;;19.90;;
5845;SDS011;2949;50.778;7.094;2022-12-07T08:27:54;42.33;;;21.00;;
5845;SDS011;2949;50.778;7.094;2022-12-07T08:30:20;42.20;;;19.30;;
5845;SDS011;2949;50.778;7.094;2022-12-07T08:32:47;39.90;;;20.10;;
5845;SDS011;2949;50.778;7.094;2022-12-07T08:35:13;36.83;;;19.43;;
5845;SDS011;2949;50.778;7.094;2022-12-07T08:37:39;35.73;;;19.13;;
5845;SDS011;2949;50.778;7.094;2022-12-07T08:40:06;31.03;;;17.90;;
5845;SDS011;2949;50.778;7.094;2022-12-07T08:42:32;35.10;;;16.93;;
5845;SDS011;2949;50.778;7.094;2022-12-07T08:45:05;40.37;;;16.50;;
5845;SDS011;2949;50.778;7.094;2022-12-07T08:47:33;32.87;;;15.93;;
5845;SDS011;2949;50.778;7.094;2022-12-07T08:50:04;27.10;;;14.17;;
5845;SDS011;2949;50.778;7.094;2022-12-07T08:52:32;25.60;;;15.23;;
5845;SDS011;2949;50.778;7.094;2022-12-07T08:54:58;29.40;;;14.83;;
5845;SDS011;2949;50.778;7.094;2022-12-07T08:57:25;25.30;;;14.50;;
5845;SDS011;2949;50.778;7.094;2022-12-07T08:59:52;28.50;;;15.50;;
5845;SDS011;2949;50.778;7.094;2022-12-07T09:02:18;30.00;;;15.37;;
5845;SDS011;2949;50.778;7.094;2022-12-07T09:04:43;26.07;;;14.40;;
5845;SDS011;2949;50.778;7.094;2022-12-07T09:07:09;31.40;;;14.00;;
5845;SDS011;2949;50.778;7.094;2022-12-07T09:09:35;27.83;;;14.07;;
5845;SDS011;2949;50.778;7.094;2022-12-07T09:12:00;24.57;;;14.23;;
5845;SDS011;2949;50.778;7.094;2022-12-07T09:14:26;22.13;;;11.87;;
5845;SDS011;2949;50.778;7.094;2022-12-07T09:16:51;23.90;;;13.33;;
5845;SDS011;2949;50.778;7.094;2022-12-07T09:19:17;26.30;;;12.33;;
5845;SDS011;2949;50.778;7.094;2022-12-07T09:21:42;22.27;;;11.97;;
5845;SDS011;2949;50.778;7.094;2022-12-07T09:24:08;26.37;;;12.30;;
5845;SDS011;2949;50.778;7.094;2022-12-07T09:26:34;29.27;;;12.60;;
5845;SDS011;2949;50.778;7.094;2022-12-07T09:29:00;20.13;;;11.77;;
5845;SDS011;2949;50.778;7.094;2022-12-07T09:31:26;21.93;;;12.20;;
5845;SDS011;2949;50.778;7.094;2022-12-07T09:33:53;23.43;;;12.70;;
5845;SDS011;2949;50.778;7.094;2022-12-07T09:36:25;25.37;;;13.13;;
5845;SDS011;2949;50.778;7.094;2022-12-07T09:38:52;27.77;;;13.13;;
5845;SDS011;2949;50.778;7.094;2022-12-07T09:41:17;22.30;;;11.93;;
5845;SDS011;2949;50.778;7.094;2022-12-07T09:43:43;28.13;;;14.20;;
5845;SDS011;2949;50.778;7.094;2022-12-07T09:46:12;25.13;;;13.37;;
5845;SDS011;2949;50.778;7.094;2022-12-07T09:48:40;29.03;;;13.47;;
5845;SDS011;2949;50.778;7.094;2022-12-07T09:51:15;25.57;;;14.30;;
5845;SDS011;2949;50.778;7.094;2022-12-07T09:53:43;29.40;;;13.20;;
5845;SDS011;2949;50.778;7.094;2022-12-07T09:56:15;29.77;;;13.53;;
5845;SDS011;2949;50.778;7.094;2022-12-07T09:58:43;22.63;;;12.37;;
5845;SDS011;2949;50.778;7.094;2022-12-07T10:03:40;23.67;;;12.43;;
5845;SDS011;2949;50.778;7.094;2022-12-07T10:06:12;21.07;;;12.03;;
5845;SDS011;2949;50.778;7.094;2022-12-07T10:08:39;28.50;;;12.20;;
5845;SDS011;2949;50.778;7.094;2022-12-07T10:11:06;22.30;;;12.97;;
5845;SDS011;2949;50.778;7.094;2022-12-07T10:13:42;26.50;;;12.83;;
5845;SDS011;2949;50.778;7.094;2022-12-07T10:18:50;30.53;;;12.23;;
5845;SDS011;2949;50.778;7.094;2022-12-07T10:21:20;25.40;;;11.07;;
5845;SDS011;2949;50.778;7.094;2022-12-07T10:24:01;19.27;;;11.83;;
5845;SDS011;2949;50.778;7.094;2022-12-07T10:26:37;26.40;;;12.03;;
5845;SDS011;2949;50.778;7.094;2022-12-07T10:31:54;21.30;;;10.10;;
5845;SDS011;2949;50.778;7.094;2022-12-07T10:34:33;17.17;;;10.17;;
5845;SDS011;2949;50.778;7.094;2022-12-07T10:39:42;25.10;;;11.73;;
5845;SDS011;2949;50.778;7.094;2022-12-07T10:42:16;32.90;;;12.67;;
5845;SDS011;2949;50.778;7.094;2022-12-07T10:44:46;22.53;;;11.20;;
5845;SDS011;2949;50.778;7.094;2022-12-07T10:50:02;18.77;;;11.43;;
5845;SDS011;2949;50.778;7.094;2022-12-07T10:52:37;17.80;;;11.17;;
5845;SDS011;2949;50.778;7.094;2022-12-07T10:55:45;24.33;;;11.70;;
5845;SDS011;2949;50.778;7.094;2022-12-07T11:01:29;20.60;;;9.90;;
5845;SDS011;2949;50.778;7.094;2022-12-07T11:12:04;21.03;;;8.90;;
5845;SDS011;2949;50.778;7.094;2022-12-07T11:17:26;17.27;;;10.30;;
5845;SDS011;2949;50.778;7.094;2022-12-07T11:20:41;12.83;;;7.80;;
5845;SDS011;2949;50.778;7.094;2022-12-07T11:29:00;16.80;;;8.83;;
5845;SDS011;2949;50.778;7.094;2022-12-07T11:34:18;12.37;;;6.40;;
5845;SDS011;2949;50.778;7.094;2022-12-07T11:36:46;13.27;;;6.90;;
5845;SDS011;2949;50.778;7.094;2022-12-07T11:39:28;12.40;;;7.07;;
5845;SDS011;2949;50.778;7.094;2022-12-07T11:42:01;12.90;;;6.07;;
5845;SDS011;2949;50.778;7.094;2022-12-07T11:44:51;14.87;;;6.10;;
5845;SDS011;2949;50.778;7.094;2022-12-07T11:47:21;11.40;;;4.90;;
5845;SDS011;2949;50.778;7.094;2022-12-07T11:52:48;9.83;;;5.57;;
5845;SDS011;2949;50.778;7.094;2022-12-07T11:58:14;16.23;;;5.73;;
5845;SDS011;2949;50.778;7.094;2022-12-07T12:00:43;9.00;;;4.30;;
5845;SDS011;2949;50.778;7.094;2022-12-07T12:03:11;7.67;;;5.03;;
5845;SDS011;2949;50.778;7.094;2022-12-07T12:05:41;20.53;;;4.53;;
5845;SDS011;2949;50.778;7.094;2022-12-07T12:10:45;7.67;;;4.93;;
5845;SDS011;2949;50.778;7.094;2022-12-07T12:13:38;11.03;;;4.83;;
5845;SDS011;2949;50.778;7.094;2022-12-07T12:16:43;7.73;;;3.87;;
5845;SDS011;2949;50.778;7.094;2022-12-07T12:22:20;12.33;;;6.83;;
5845;SDS011;2949;50.778;7.094;2022-12-07T12:24:49;13.87;;;5.70;;
5845;SDS011;2949;50.778;7.094;2022-12-07T12:27:25;9.80;;;4.43;;
5845;SDS011;2949;50.778;7.094;2022-12-07T12:29:55;13.70;;;5.00;;
5845;SDS011;2949;50.778;7.094;2022-12-07T12:32:28;15.53;;;4.93;;
5845;SDS011;2949;50.778;7.094;2022-12-07T12:37:51;11.60;;;5.83;;
5845;SDS011;2949;50.778;7.094;2022-12-07T12:42:56;10.73;;;4.53;;
5845;SDS011;2949;50.778;7.094;2022-12-07T12:45:26;14.97;;;6.40;;
5845;SDS011;2949;50.778;7.094;2022-12-07T12:47:59;13.27;;;5.57;;
5845;SDS011;2949;50.778;7.094;2022-12-07T12:53:03;15.07;;;5.93;;
5845;SDS011;2949;50.778;7.094;2022-12-07T12:55:48;15.90;;;6.17;;
5845;SDS011;2949;50.778;7.094;2022-12-07T12:58:34;13.00;;;6.63;;
5845;SDS011;2949;50.778;7.094;2022-12-07T13:03:52;11.77;;;6.53;;
5845;SDS011;2949;50.778;7.094;2022-12-07T13:06:31;9.03;;;5.30;;
5845;SDS011;2949;50.778;7.094;2022-12-07T13:09:00;12.77;;;5.63;;
5845;SDS011;2949;50.778;7.094;2022-12-07T13:11:33;12.73;;;6.10;;
5845;SDS011;2949;50.778;7.094;2022-12-07T13:17:12;11.70;;;6.60;;
5845;SDS011;2949;50.778;7.094;2022-12-07T13:20:04;13.73;;;5.73;;
5845;SDS011;2949;50.778;7.094;2022-12-07T13:25:08;13.80;;;6.40;;
5845;SDS011;2949;50.778;7.094;2022-12-07T13:27:37;13.70;;;6.30;;
5845;SDS011;2949;50.778;7.094;2022-12-07T13:30:11;24.73;;;7.87;;
5845;SDS011;2949;50.778;7.094;2022-12-07T13:32:43;13.33;;;6.83;;
5845;SDS011;2949;50.778;7.094;2022-12-07T13:35:30;13.20;;;7.00;;
5845;SDS011;2949;50.778;7.094;2022-12-07T13:37:58;14.10;;;6.03;;
5845;SDS011;2949;50.778;7.094;2022-12-07T13:40:25;10.83;;;5.70;;
5845;SDS011;2949;50.778;7.094;2022-12-07T13:43:01;11.53;;;5.43;;
5845;SDS011;2949;50.778;7.094;2022-12-07T13:45:30;13.73;;;6.43;;
5845;SDS011;2949;50.778;7.094;2022-12-07T13:48:14;11.50;;;6.60;;
5845;SDS011;2949;50.778;7.094;2022-12-07T13:50:53;16.40;;;7.90;;
5845;SDS011;2949;50.778;7.094;2022-12-07T13:53:20;15.33;;;8.40;;
5845;SDS011;2949;50.778;7.094;2022-12-07T13:55:47;13.23;;;7.33;;
5845;SDS011;2949;50.778;7.094;2022-12-07T13:58:13;14.33;;;6.73;;
5845;SDS011;2949;50.778;7.094;2022-12-07T14:00:39;17.77;;;8.20;;
5845;SDS011;2949;50.778;7.094;2022-12-07T14:05:38;17.73;;;7.20;;
5845;SDS011;2949;50.778;7.094;2022-12-07T14:10:39;18.23;;;6.73;;
5845;SDS011;2949;50.778;7.094;2022-12-07T14:16:18;8.97;;;5.70;;
5845;SDS011;2949;50.778;7.094;2022-12-07T14:18:44;15.23;;;5.73;;
5845;SDS011;2949;50.778;7.094;2022-12-07T14:21:18;9.87;;;4.67;;
5845;SDS011;2949;50.778;7.094;2022-12-07T14:24:02;10.03;;;4.53;;
5845;SDS011;2949;50.778;7.094;2022-12-07T14:26:40;7.70;;;4.27;;
5845;SDS011;2949;50.778;7.094;2022-12-07T14:29:18;7.40;;;4.33;;
5845;SDS011;2949;50.778;7.094;2022-12-07T14:31:50;18.43;;;6.03;;
5845;SDS011;2949;50.778;7.094;2022-12-07T14:34:19;10.90;;;5.60;;
5845;SDS011;2949;50.778;7.094;2022-12-07T14:36:45;12.07;;;4.63;;
5845;SDS011;2949;50.778;7.094;2022-12-07T14:39:11;11.03;;;5.17;;
5845;SDS011;2949;50.778;7.094;2022-12-07T14:41:36;6.97;;;4.80;;
5845;SDS011;2949;50.778;7.094;2022-12-07T14:44:21;24.20;;;5.60;;
5845;SDS011;2949;50.778;7.094;2022-12-07T14:46:48;10.50;;;3.90;;
5845;SDS011;2949;50.778;7.094;2022-12-07T14:49:15;4.07;;;3.63;;
5845;SDS011;2949;50.778;7.094;2022-12-07T14:51:41;9.60;;;4.90;;
5845;SDS011;2949;50.778;7.094;2022-12-07T14:54:12;9.00;;;4.37;;
5845;SDS011;2949;50.778;7.094;2022-12-07T14:56:42;13.40;;;4.27;;
5845;SDS011;2949;50.778;7.094;2022-12-07T14:59:08;10.47;;;4.90;;
5845;SDS011;2949;50.778;7.094;2022-12-07T15:01:34;5.70;;;4.57;;
5845;SDS011;2949;50.778;7.094;2022-12-07T15:04:00;11.87;;;5.23;;
5845;SDS011;2949;50.778;7.094;2022-12-07T15:06:26;9.67;;;4.90;;
5845;SDS011;2949;50.778;7.094;2022-12-07T15:08:51;8.07;;;5.00;;
5845;SDS011;2949;50.778;7.094;2022-12-07T15:11:17;13.23;;;5.00;;
5845;SDS011;2949;50.778;7.094;2022-12-07T15:13:43;6.57;;;4.10;;
5845;SDS011;2949;50.778;7.094;2022-12-07T15:16:27;14.87;;;5.37;;
5845;SDS011;2949;50.778;7.094;2022-12-07T15:18:53;10.73;;;4.60;;
5845;SDS011;2949;50.778;7.094;2022-12-07T15:21:19;14.97;;;5.20;;
5845;SDS011;2949;50.778;7.094;2022-12-07T15:23:45;6.00;;;4.20;;
5845;SDS011;2949;50.778;7.094;2022-12-07T15:26:11;10.50;;;5.57;;
5845;SDS011;2949;50.778;7.094;2022-12-07T15:28:37;13.87;;;5.83;;
5845;SDS011;2949;50.778;7.094;2022-12-07T15:31:03;11.20;;;5.90;;
5845;SDS011;2949;50.778;7.094;2022-12-07T15:33:28;9.27;;;5.00;;
5845;SDS011;2949;50.778;7.094;2022-12-07T15:35:54;7.50;;;5.13;;
5845;SDS011;2949;50.778;7.094;2022-12-07T15:38:19;11.10;;;6.03;;
5845;SDS011;2949;50.778;7.094;2022-12-07T15:40:48;9.60;;;6.10;;
5845;SDS011;2949;50.778;7.094;2022-12-07T15:43:14;9.67;;;5.03;;
5845;SDS011;2949;50.778;7.094;2022-12-07T15:46:11;9.93;;;5.50;;
5845;SDS011;2949;50.778;7.094;2022-12-07T15:48:37;13.47;;;5.70;;
5845;SDS011;2949;50.778;7.094;2022-12-07T15:51:06;13.30;;;6.20;;
5845;SDS011;2949;50.778;7.094;2022-12-07T15:53:32;13.37;;;7.10;;
5845;SDS011;2949;50.778;7.094;2022-12-07T15:55:59;20.47;;;9.83;;
5845;SDS011;2949;50.778;7.094;2022-12-07T15:58:24;23.63;;;10.37;;
5845;SDS011;2949;50.778;7.094;2022-12-07T16:00:50;35.73;;;13.43;;
5845;SDS011;2949;50.778;7.094;2022-12-07T16:03:16;38.60;;;12.67;;
5845;SDS011;2949;50.778;7.094;2022-12-07T16:05:41;15.33;;;8.70;;
5845;SDS011;2949;50.778;7.094;2022-12-07T16:08:13;19.07;;;8.53;;
5845;SDS011;2949;50.778;7.094;2022-12-07T16:10:38;15.37;;;7.87;;
5845;SDS011;2949;50.778;7.094;2022-12-07T16:13:07;20.03;;;8.07;;
5845;SDS011;2949;50.778;7.094;2022-12-07T16:15:32;16.90;;;8.10;;
5845;SDS011;2949;50.778;7.094;2022-12-07T16:17:58;11.53;;;6.70;;
5845;SDS011;2949;50.778;7.094;2022-12-07T16:20:23;12.30;;;7.30;;
5845;SDS011;2949;50.778;7.094;2022-12-07T16:22:51;22.53;;;7.67;;
5845;SDS011;2949;50.778;7.094;2022-12-07T16:25:17;13.00;;;7.87;;
5845;SDS011;2949;50.778;7.094;2022-12-07T16:27:42;18.23;;;7.67;;
5845;SDS011;2949;50.778;7.094;2022-12-07T16:30:08;14.30;;;7.83;;
5845;SDS011;2949;50.778;7.094;2022-12-07T16:32:34;15.33;;;8.57;;
5845;SDS011;2949;50.778;7.094;2022-12-07T16:34:59;17.07;;;8.83;;
5845;SDS011;2949;50.778;7.094;2022-12-07T16:37:25;18.40;;;8.73;;
5845;SDS011;2949;50.778;7.094;2022-12-07T16:39:50;20.67;;;10.00;;
5845;SDS011;2949;50.778;7.094;2022-12-07T16:42:16;16.57;;;9.40;;
5845;SDS011;2949;50.778;7.094;2022-12-07T16:44:41;28.30;;;9.37;;
5845;SDS011;2949;50.778;7.094;2022-12-07T16:47:07;18.63;;;10.77;;
5845;SDS011;2949;50.778;7.094;2022-12-07T16:49:32;15.77;;;9.70;;